createdAt,value
2022-09-11T00:01:45.524Z,5.60
2022-09-11T00:04:13.907Z,6.30
2022-09-11T00:06:43.713Z,6.80
2022-09-11T00:09:12.085Z,8.00
2022-09-11T00:11:43.792Z,7.77
2022-09-11T00:14:15.399Z,8.90
2022-09-11T00:16:47.242Z,8.70
2022-09-11T00:19:18.746Z,9.47
2022-09-11T00:21:47.495Z,9.97
2022-09-11T00:24:15.532Z,9.33
2022-09-11T00:26:43.715Z,9.20
2022-09-11T00:29:12.158Z,8.90
2022-09-11T00:31:41.706Z,9.87
2022-09-11T00:34:09.855Z,9.10
2022-09-11T00:36:41.213Z,11.30
2022-09-11T00:39:11.406Z,9.50
2022-09-11T00:41:42.322Z,9.23
2022-09-11T00:45:01.275Z,9.40
2022-09-11T00:47:32.014Z,9.50
2022-09-11T00:50:10.946Z,9.77
2022-09-11T00:52:43.234Z,10.50
2022-09-11T00:55:15.611Z,10.20
2022-09-11T00:57:48.265Z,9.60
2022-09-11T01:00:16.799Z,9.27
2022-09-11T01:02:50.406Z,9.43
2022-09-11T01:05:19.845Z,10.40
2022-09-11T01:07:48.893Z,10.90
2022-09-11T01:10:16.954Z,12.77
2022-09-11T01:12:54.876Z,12.17
2022-09-11T01:15:31.387Z,12.10
2022-09-11T01:18:09.202Z,13.13
2022-09-11T01:20:51.603Z,12.10
2022-09-11T01:23:35.712Z,14.23
2022-09-11T01:26:32.390Z,11.70
2022-09-11T01:29:07.249Z,12.17
2022-09-11T01:31:45.806Z,12.00
2022-09-11T01:34:22.848Z,12.17
2022-09-11T01:36:58.085Z,14.97
2022-09-11T01:39:34.549Z,13.20
2022-09-11T01:42:07.687Z,12.83
2022-09-11T01:44:42.327Z,12.47
2022-09-11T01:47:12.925Z,12.67
2022-09-11T01:49:47.991Z,12.30
2022-09-11T01:52:22.051Z,11.77
2022-09-11T01:54:55.737Z,12.57
2022-09-11T01:57:28.090Z,12.30
2022-09-11T02:00:02.149Z,13.03
2022-09-11T02:02:37.199Z,12.07
2022-09-11T02:05:11.077Z,12.60
2022-09-11T02:07:44.399Z,13.80
2022-09-11T02:10:17.178Z,13.63
2022-09-11T02:12:52.834Z,12.70
2022-09-11T02:15:27.176Z,12.40
2022-09-11T02:18:03.178Z,13.10
2022-09-11T02:20:31.370Z,13.07
2022-09-11T02:22:59.837Z,14.30
2022-09-11T02:25:27.930Z,13.20
2022-09-11T02:27:55.893Z,14.03
2022-09-11T02:30:25.174Z,11.93
2022-09-11T02:32:56.140Z,13.77
2022-09-11T02:35:25.345Z,12.57
2022-09-11T02:38:06.877Z,14.80
2022-09-11T02:40:48.453Z,13.10
2022-09-11T02:43:39.579Z,13.50
2022-09-11T02:46:30.942Z,13.93
2022-09-11T02:49:09.244Z,13.30
2022-09-11T02:51:47.938Z,12.00
2022-09-11T02:54:30.152Z,14.27
2022-09-11T02:57:07.346Z,13.00
2022-09-11T02:59:40.045Z,14.73
2022-09-11T03:02:16.422Z,13.23
2022-09-11T03:04:45.463Z,14.10
2022-09-11T03:07:13.556Z,13.50
2022-09-11T03:09:41.999Z,15.50
2022-09-11T03:12:10.255Z,12.93
2022-09-11T03:14:38.323Z,15.00
2022-09-11T03:17:06.384Z,13.73
2022-09-11T03:19:35.720Z,13.83
2022-09-11T03:22:03.993Z,14.93
2022-09-11T03:24:31.988Z,14.43
2022-09-11T03:26:59.962Z,15.77
2022-09-11T03:29:28.084Z,14.00
2022-09-11T03:31:58.644Z,13.57
2022-09-11T03:34:26.789Z,13.47
2022-09-11T03:36:56.066Z,14.27
2022-09-11T03:39:24.195Z,13.40
2022-09-11T03:41:52.241Z,14.80
2022-09-11T03:44:20.171Z,12.93
2022-09-11T03:46:48.113Z,13.90
2022-09-11T03:49:16.147Z,14.30
2022-09-11T03:51:44.098Z,13.80
2022-09-11T03:54:15.367Z,14.23
2022-09-11T03:56:43.892Z,13.43
2022-09-11T03:59:12.593Z,14.00
2022-09-11T04:01:40.626Z,13.77
2022-09-11T04:04:08.589Z,14.20
2022-09-11T04:06:36.799Z,15.40
2022-09-11T04:09:05.065Z,13.70
2022-09-11T04:11:38.824Z,15.07
2022-09-11T04:14:07.022Z,16.07
2022-09-11T04:16:35.589Z,15.40
2022-09-11T04:19:03.811Z,15.57
2022-09-11T04:21:33.954Z,16.40
2022-09-11T04:24:02.254Z,15.80
2022-09-11T04:26:34.028Z,16.17
2022-09-11T04:29:02.150Z,15.60
2022-09-11T04:31:30.199Z,15.47
2022-09-11T04:33:58.401Z,17.40
2022-09-11T04:36:27.073Z,15.70
2022-09-11T04:38:57.835Z,16.23
2022-09-11T04:41:26.501Z,16.80
2022-09-11T04:44:02.415Z,16.10
2022-09-11T04:46:32.250Z,19.90
2022-09-11T04:49:00.331Z,16.07
2022-09-11T04:51:30.328Z,15.67
2022-09-11T04:54:00.062Z,16.00
2022-09-11T04:56:30.578Z,16.90
2022-09-11T04:59:01.946Z,17.30
2022-09-11T05:01:32.363Z,17.47
2022-09-11T05:04:01.641Z,17.10
2022-09-11T05:06:30.689Z,16.97
2022-09-11T05:09:03.559Z,16.23
2022-09-11T05:11:31.892Z,18.27
2022-09-11T05:14:01.446Z,16.00
2022-09-11T05:16:31.104Z,15.60
2022-09-11T05:19:00.077Z,16.00
2022-09-11T05:21:29.612Z,18.63
2022-09-11T05:23:59.850Z,16.17
2022-09-11T05:26:30.526Z,17.20
2022-09-11T05:29:02.671Z,17.50
2022-09-11T05:31:32.024Z,18.23
2022-09-11T05:34:01.127Z,17.53
2022-09-11T05:36:31.006Z,17.43
2022-09-11T05:39:01.128Z,17.43
2022-09-11T05:41:29.121Z,18.33
2022-09-11T05:43:58.513Z,18.63
2022-09-11T05:46:27.960Z,20.23
2022-09-11T05:48:55.981Z,18.93
2022-09-11T05:51:24.272Z,19.07
2022-09-11T05:53:54.896Z,20.43
2022-09-11T05:56:25.185Z,20.63
2022-09-11T05:58:53.522Z,19.90
2022-09-11T06:01:24.827Z,19.40
2022-09-11T06:03:54.984Z,19.03
2022-09-11T06:06:25.080Z,18.27
2022-09-11T06:08:53.383Z,19.27
2022-09-11T06:11:23.109Z,19.50
2022-09-11T06:13:51.752Z,18.73
2022-09-11T06:16:22.285Z,18.97
2022-09-11T06:18:53.182Z,18.20
2022-09-11T06:21:23.523Z,18.17
2022-09-11T06:23:53.574Z,15.60
2022-09-11T06:26:23.653Z,18.27
2022-09-11T06:28:53.036Z,16.77
2022-09-11T06:31:23.039Z,16.53
2022-09-11T06:33:52.774Z,15.23
2022-09-11T06:36:24.284Z,15.70
2022-09-11T06:38:55.468Z,15.77
2022-09-11T06:41:24.473Z,12.97
2022-09-11T06:43:53.560Z,16.50
2022-09-11T06:46:24.201Z,13.57
2022-09-11T06:48:53.760Z,15.13
2022-09-11T06:51:23.916Z,13.07
2022-09-11T06:53:57.633Z,14.67
2022-09-11T06:56:26.223Z,12.97
2022-09-11T06:58:54.396Z,13.80
2022-09-11T07:01:24.360Z,13.00
2022-09-11T07:03:55.558Z,12.97
2022-09-11T07:06:25.880Z,14.30
2022-09-11T07:09:00.775Z,14.47
2022-09-11T07:11:32.393Z,15.80
2022-09-11T07:14:00.648Z,15.83
2022-09-11T07:16:31.327Z,16.20
2022-09-11T07:19:01.271Z,16.67
2022-09-11T07:21:29.884Z,15.70
2022-09-11T07:24:00.398Z,15.27
2022-09-11T07:26:31.899Z,15.77
2022-09-11T07:29:04.071Z,14.37
2022-09-11T07:31:39.415Z,15.00
2022-09-11T07:34:08.828Z,14.70
2022-09-11T07:36:37.460Z,16.40
2022-09-11T07:39:05.873Z,13.80
2022-09-11T07:41:34.731Z,14.27
2022-09-11T07:44:03.700Z,13.90
2022-09-11T07:46:32.824Z,14.30
2022-09-11T07:49:01.956Z,13.20
2022-09-11T07:51:31.413Z,13.53
2022-09-11T07:54:00.042Z,12.90
2022-09-11T07:56:28.929Z,13.90
2022-09-11T07:58:57.590Z,13.40
2022-09-11T08:01:29.611Z,13.57
2022-09-11T08:04:00.958Z,11.00
2022-09-11T08:06:32.884Z,12.43
2022-09-11T08:09:03.414Z,11.23
2022-09-11T08:11:36.166Z,10.93
2022-09-11T08:14:04.852Z,9.33
2022-09-11T08:16:33.016Z,8.83
2022-09-11T08:19:01.815Z,9.50
2022-09-11T08:21:31.556Z,8.10
2022-09-11T08:23:59.572Z,9.00
2022-09-11T08:26:30.254Z,9.40
2022-09-11T08:29:00.698Z,7.50
2022-09-11T08:31:29.315Z,8.33
2022-09-11T08:33:57.871Z,7.13
2022-09-11T08:36:26.186Z,7.83
2022-09-11T08:38:55.872Z,7.13
2022-09-11T08:41:41.908Z,7.50
2022-09-11T08:44:23.018Z,7.30
2022-09-11T08:46:56.919Z,8.23
2022-09-11T08:49:28.814Z,8.30
2022-09-11T08:52:00.039Z,6.40
2022-09-11T08:54:32.256Z,7.20
2022-09-11T08:57:11.694Z,7.07
2022-09-11T08:59:59.410Z,6.40
2022-09-11T09:02:51.579Z,7.30
2022-09-11T09:05:33.273Z,5.50
2022-09-11T09:08:19.201Z,6.33
2022-09-11T09:10:54.238Z,6.43
2022-09-11T09:13:45.374Z,7.40
2022-09-11T09:16:29.793Z,6.37
2022-09-11T09:19:05.417Z,5.50
2022-09-11T09:21:38.702Z,5.13
2022-09-11T09:24:19.280Z,5.50
2022-09-11T09:26:54.082Z,5.10
2022-09-11T09:29:24.708Z,5.70
2022-09-11T09:31:59.955Z,4.63
2022-09-11T09:34:31.905Z,5.40
2022-09-11T09:37:07.538Z,5.93
2022-09-11T09:39:37.226Z,6.00
2022-09-11T09:42:55.468Z,6.03
2022-09-11T09:45:40.213Z,6.23
2022-09-11T09:48:11.832Z,6.10
2022-09-11T09:50:41.880Z,7.00
2022-09-11T09:53:21.142Z,5.60
2022-09-11T09:55:56.199Z,6.53
2022-09-11T09:58:28.375Z,7.07
2022-09-11T10:00:58.067Z,6.30
2022-09-11T10:03:27.152Z,6.20
2022-09-11T10:05:57.090Z,5.40
2022-09-11T10:08:36.205Z,5.77
2022-09-11T10:11:07.325Z,6.70
2022-09-11T10:13:41.969Z,6.57
2022-09-11T10:16:22.339Z,6.40
2022-09-11T10:18:50.477Z,6.10
2022-09-11T10:21:29.853Z,7.40
2022-09-11T10:24:00.143Z,6.07
2022-09-11T10:26:36.364Z,6.10
2022-09-11T10:29:13.283Z,7.50
2022-09-11T10:31:49.749Z,6.23
2022-09-11T10:34:20.107Z,7.20
2022-09-11T10:36:55.524Z,6.50
2022-09-11T10:39:25.862Z,5.00
2022-09-11T10:41:59.230Z,5.90
2022-09-11T10:44:29.696Z,5.23
2022-09-11T10:47:06.288Z,4.80
2022-09-11T10:49:34.800Z,4.63
2022-09-11T10:52:15.319Z,4.40
2022-09-11T10:54:55.767Z,4.47
2022-09-11T10:57:29.939Z,4.23
2022-09-11T11:00:09.637Z,5.10
2022-09-11T11:02:41.106Z,4.37
2022-09-11T11:05:18.131Z,4.43
2022-09-11T11:08:09.508Z,4.67
2022-09-11T11:10:52.177Z,4.57
2022-09-11T11:13:45.219Z,4.53
2022-09-11T11:16:24.231Z,5.67
2022-09-11T11:19:12.587Z,5.17
2022-09-11T11:21:55.524Z,5.67
2022-09-11T11:24:47.460Z,5.37
2022-09-11T11:27:45.148Z,4.90
2022-09-11T11:30:19.342Z,5.50
2022-09-11T11:33:14.900Z,5.83
2022-09-11T11:35:57.846Z,5.10
2022-09-11T11:38:34.690Z,5.30
2022-09-11T11:41:10.499Z,4.80
2022-09-11T11:43:41.982Z,4.70
2022-09-11T11:46:18.044Z,4.30
2022-09-11T11:48:53.825Z,4.83
2022-09-11T11:51:27.125Z,5.00
2022-09-11T11:54:03.973Z,4.43
2022-09-11T11:56:40.764Z,3.87
2022-09-11T11:59:18.980Z,4.60
2022-09-11T12:01:54.446Z,4.30
2022-09-11T12:04:36.721Z,4.43
2022-09-11T12:07:09.071Z,4.90
2022-09-11T12:09:38.572Z,5.00
2022-09-11T12:12:08.741Z,4.30
2022-09-11T12:14:37.240Z,5.40
2022-09-11T12:17:20.910Z,5.80
2022-09-11T12:20:32.539Z,5.10
2022-09-11T12:23:04.448Z,4.80
2022-09-11T12:26:19.834Z,4.60
2022-09-11T12:28:48.726Z,4.33
2022-09-11T12:31:18.240Z,5.33
2022-09-11T12:33:57.325Z,4.60
2022-09-11T12:36:49.961Z,5.10
2022-09-11T12:39:27.578Z,5.00
2022-09-11T12:42:47.644Z,3.90
2022-09-11T12:45:37.056Z,4.20
2022-09-11T12:48:11.052Z,5.23
2022-09-11T12:50:45.835Z,5.13
2022-09-11T12:53:23.487Z,5.50
2022-09-11T12:55:59.107Z,4.87
2022-09-11T12:58:36.838Z,5.43
2022-09-11T13:01:18.626Z,7.07
2022-09-11T13:03:59.880Z,5.40
2022-09-11T13:06:39.816Z,5.30
2022-09-11T13:09:21.306Z,5.60
2022-09-11T13:11:52.354Z,5.90
2022-09-11T13:14:49.660Z,5.70
2022-09-11T13:17:30.167Z,6.30
2022-09-11T13:20:24.133Z,6.47
2022-09-11T13:22:57.658Z,5.80
2022-09-11T13:25:28.509Z,6.07
2022-09-11T13:28:01.125Z,5.60
2022-09-11T13:30:29.304Z,5.30
2022-09-11T13:33:07.489Z,6.00
2022-09-11T13:35:40.168Z,5.33
2022-09-11T13:38:11.829Z,6.17
2022-09-11T13:40:47.465Z,6.30
2022-09-11T13:43:20.661Z,5.77
2022-09-11T13:45:49.062Z,5.47
2022-09-11T13:48:25.820Z,5.80
2022-09-11T13:50:58.228Z,5.00
2022-09-11T13:53:27.271Z,5.40
2022-09-11T13:55:56.575Z,5.87
2022-09-11T13:58:26.621Z,5.50
2022-09-11T14:00:55.410Z,5.10
2022-09-11T14:03:27.897Z,6.00
2022-09-11T14:05:58.059Z,6.27
2022-09-11T14:08:34.185Z,5.77
2022-09-11T14:11:11.104Z,6.30
2022-09-11T14:13:48.048Z,5.50
2022-09-11T14:16:26.093Z,6.47
2022-09-11T14:18:59.468Z,5.00
2022-09-11T14:21:33.879Z,4.03
2022-09-11T14:24:02.685Z,5.03
2022-09-11T14:26:43.147Z,5.00
2022-09-11T14:29:25.688Z,5.40
2022-09-11T14:31:55.405Z,5.00
2022-09-11T14:34:28.347Z,5.60
2022-09-11T14:36:59.941Z,4.07
2022-09-11T14:39:34.844Z,4.93
2022-09-11T14:42:05.658Z,4.43
2022-09-11T14:44:35.495Z,4.83
2022-09-11T14:47:03.550Z,5.83
2022-09-11T14:49:31.647Z,5.00
2022-09-11T14:52:07.617Z,5.10
2022-09-11T14:54:35.709Z,5.93
2022-09-11T14:57:16.165Z,5.80
2022-09-11T14:59:46.829Z,4.77
2022-09-11T15:02:17.278Z,4.87
2022-09-11T15:04:46.747Z,5.43
2022-09-11T15:07:16.415Z,4.80
2022-09-11T15:09:44.693Z,5.00
2022-09-11T15:12:15.322Z,4.40
2022-09-11T15:14:59.948Z,4.57
2022-09-11T15:17:31.335Z,4.07
2022-09-11T15:20:00.613Z,4.90
2022-09-11T15:22:29.198Z,5.27
2022-09-11T15:24:57.194Z,4.50
2022-09-11T15:27:26.561Z,4.60
2022-09-11T15:29:55.167Z,5.53
2022-09-11T15:32:23.368Z,5.13
2022-09-11T15:34:51.629Z,4.40
2022-09-11T15:37:19.619Z,5.33
2022-09-11T15:39:47.661Z,4.53
2022-09-11T15:42:15.681Z,4.10
2022-09-11T15:44:45.976Z,4.97
2022-09-11T15:47:13.951Z,4.73
2022-09-11T15:49:44.266Z,5.17
2022-09-11T15:52:12.321Z,5.10
2022-09-11T15:54:40.476Z,4.40
2022-09-11T15:57:09.019Z,3.70
2022-09-11T15:59:37.047Z,4.10
2022-09-11T16:02:10.119Z,4.40
2022-09-11T16:04:38.613Z,5.03
2022-09-11T16:07:07.053Z,4.40
2022-09-11T16:09:35.153Z,4.23
2022-09-11T16:12:03.482Z,4.50
2022-09-11T16:14:34.029Z,4.90
2022-09-11T16:17:05.410Z,4.10
2022-09-11T16:19:36.122Z,4.20
2022-09-11T16:22:06.252Z,4.33
2022-09-11T16:24:38.049Z,5.40
2022-09-11T16:27:08.690Z,4.53
2022-09-11T16:30:15.995Z,5.40
2022-09-11T16:32:31.833Z,4.33
2022-09-11T16:35:01.116Z,4.20
2022-09-11T16:37:32.711Z,4.27
2022-09-11T16:40:02.274Z,5.33
2022-09-11T16:42:30.794Z,4.23
2022-09-11T16:44:58.842Z,4.20
2022-09-11T16:47:26.777Z,4.63
2022-09-11T16:50:10.029Z,5.00
2022-09-11T16:52:39.543Z,5.57
2022-09-11T16:55:10.229Z,5.60
2022-09-11T16:57:38.706Z,5.57
2022-09-11T17:00:09.280Z,4.80
2022-09-11T17:02:38.755Z,5.73
2022-09-11T17:05:08.223Z,5.40
2022-09-11T17:07:36.343Z,5.50
2022-09-11T17:10:06.512Z,5.87
2022-09-11T17:12:34.518Z,5.43
2022-09-11T17:15:02.605Z,6.47
2022-09-11T17:17:31.206Z,5.23
2022-09-11T17:19:59.264Z,6.13
2022-09-11T17:22:27.312Z,5.50
2022-09-11T17:24:57.477Z,6.80
2022-09-11T17:27:27.328Z,6.23
2022-09-11T17:29:55.322Z,6.03
2022-09-11T17:32:28.165Z,6.30
2022-09-11T17:34:57.005Z,5.10
2022-09-11T17:37:26.000Z,5.47
2022-09-11T17:39:54.224Z,7.17
2022-09-11T17:42:22.671Z,5.50
2022-09-11T17:44:51.984Z,6.97
2022-09-11T17:47:19.967Z,5.80
2022-09-11T17:49:48.358Z,5.87
2022-09-11T17:52:16.378Z,6.40
2022-09-11T17:54:44.317Z,6.00
2022-09-11T17:57:12.764Z,6.13
2022-09-11T17:59:40.696Z,6.10
2022-09-11T18:02:14.202Z,6.30
2022-09-11T18:04:43.806Z,5.83
2022-09-11T18:07:14.495Z,6.13
2022-09-11T18:09:43.485Z,5.80
2022-09-11T18:12:11.683Z,5.87
2022-09-11T18:14:42.910Z,5.77
2022-09-11T18:17:12.478Z,4.53
2022-09-11T18:19:40.617Z,6.20
2022-09-11T18:22:09.834Z,5.50
2022-09-11T18:24:39.755Z,5.80
2022-09-11T18:27:09.768Z,6.03
2022-09-11T18:29:39.924Z,5.57
2022-09-11T18:32:10.154Z,7.00
2022-09-11T18:34:39.948Z,6.40
2022-09-11T18:37:08.575Z,5.80
2022-09-11T18:39:38.273Z,5.70
2022-09-11T18:42:07.399Z,5.67
2022-09-11T18:44:35.788Z,5.37
2022-09-11T18:47:04.132Z,5.10
2022-09-11T18:49:34.750Z,6.20
2022-09-11T18:52:04.452Z,6.50
2022-09-11T18:54:33.550Z,6.53
2022-09-11T18:57:03.369Z,5.10
2022-09-11T18:59:33.402Z,5.33
2022-09-11T19:02:10.712Z,5.20
2022-09-11T19:04:39.017Z,5.60
2022-09-11T19:07:09.988Z,5.97
2022-09-11T19:09:38.356Z,5.53
2022-09-11T19:12:08.649Z,6.60
2022-09-11T19:14:37.725Z,6.50
2022-09-11T19:17:05.765Z,6.20
2022-09-11T19:19:33.749Z,6.30
2022-09-11T19:22:01.719Z,6.57
2022-09-11T19:24:31.608Z,5.93
2022-09-11T19:27:00.161Z,6.90
2022-09-11T19:29:28.422Z,5.90
2022-09-11T19:31:56.471Z,6.70
2022-09-11T19:34:24.795Z,6.40
2022-09-11T19:36:53.353Z,7.03
2022-09-11T19:39:21.727Z,7.20
2022-09-11T19:41:52.333Z,6.20
2022-09-11T19:44:20.970Z,6.70
2022-09-11T19:46:49.915Z,7.77
2022-09-11T19:49:18.249Z,6.90
2022-09-11T19:51:49.008Z,6.70
2022-09-11T19:54:19.473Z,6.70
2022-09-11T19:56:51.205Z,8.40
2022-09-11T19:59:20.789Z,6.53
2022-09-11T20:01:49.865Z,7.40
2022-09-11T20:04:19.032Z,8.30
2022-09-11T20:09:31.813Z,7.80
2022-09-11T20:12:01.428Z,9.30
2022-09-11T20:14:31.546Z,7.50
2022-09-11T20:17:00.977Z,7.73
2022-09-11T20:19:29.587Z,6.13
2022-09-11T20:21:57.683Z,7.03
2022-09-11T20:24:25.980Z,8.33
2022-09-11T20:26:55.343Z,7.60
2022-09-11T20:29:23.348Z,7.90
2022-09-11T20:31:54.026Z,7.83
2022-09-11T20:34:25.673Z,7.17
2022-09-11T20:36:53.730Z,7.10
2022-09-11T20:39:23.176Z,8.60
2022-09-11T20:41:51.115Z,7.10
2022-09-11T20:44:19.355Z,7.60
2022-09-11T20:46:48.327Z,8.57
2022-09-11T20:49:17.929Z,7.50
2022-09-11T20:51:46.854Z,7.20
2022-09-11T20:54:15.156Z,7.93
2022-09-11T20:56:44.345Z,8.60
2022-09-11T20:59:12.341Z,8.20
2022-09-11T21:01:40.424Z,7.95
2022-09-11T21:04:09.740Z,8.40
2022-09-11T21:06:40.859Z,7.97
2022-09-11T21:09:11.739Z,8.97
2022-09-11T21:11:41.481Z,7.70
2022-09-11T21:14:10.586Z,7.70
2022-09-11T21:16:39.093Z,7.77
2022-09-11T21:19:09.174Z,8.30
2022-09-11T21:21:40.051Z,8.40
2022-09-11T21:24:15.377Z,7.67
2022-09-11T21:26:43.567Z,10.40
2022-09-11T21:29:14.531Z,8.97
2022-09-11T21:31:42.585Z,8.40
2022-09-11T21:34:11.056Z,7.70
2022-09-11T21:36:40.587Z,7.80
2022-09-11T21:39:08.593Z,7.70
2022-09-11T21:41:36.569Z,7.60
2022-09-11T21:44:05.131Z,8.70
2022-09-11T21:46:33.331Z,7.83
2022-09-11T21:49:01.799Z,6.60
2022-09-11T21:51:30.415Z,8.20
2022-09-11T21:54:01.617Z,7.00
2022-09-11T21:56:31.912Z,8.17
2022-09-11T21:59:00.981Z,7.77
2022-09-11T22:01:29.910Z,6.70
2022-09-11T22:03:59.994Z,6.47
2022-09-11T22:06:29.031Z,8.30
2022-09-11T22:08:59.080Z,8.43
2022-09-11T22:11:27.463Z,7.20
2022-09-11T22:13:55.755Z,7.60
2022-09-11T22:16:24.014Z,7.30
2022-09-11T22:18:54.315Z,7.83
2022-09-11T22:21:22.516Z,8.70
2022-09-11T22:23:50.457Z,7.57
2022-09-11T22:26:23.551Z,6.77
2022-09-11T22:28:52.856Z,8.03
2022-09-11T22:31:23.626Z,6.40
2022-09-11T22:33:52.056Z,7.03
2022-09-11T22:36:23.544Z,7.47
2022-09-11T22:38:52.324Z,7.43
2022-09-11T22:41:22.498Z,6.60
2022-09-11T22:43:50.686Z,6.60
2022-09-11T22:46:20.669Z,7.97
2022-09-11T22:48:48.861Z,6.43
2022-09-11T22:51:17.579Z,6.77
2022-09-11T22:53:45.723Z,6.00
2022-09-11T22:56:14.131Z,7.30
2022-09-11T22:58:43.773Z,7.07
2022-09-11T23:01:21.095Z,8.17
2022-09-11T23:03:50.107Z,6.73
2022-09-11T23:06:35.984Z,7.20
2022-09-11T23:09:05.296Z,7.10
2022-09-11T23:11:33.269Z,6.63
2022-09-11T23:14:02.645Z,7.73
2022-09-11T23:16:31.694Z,7.10
2022-09-11T23:19:02.134Z,6.20
2022-09-11T23:21:32.718Z,7.80
2022-09-11T23:24:01.350Z,6.50
2022-09-11T23:26:30.993Z,6.33
2022-09-11T23:28:59.418Z,6.23
2022-09-11T23:31:32.113Z,6.50
2022-09-11T23:34:02.713Z,6.60
2022-09-11T23:36:32.338Z,6.47
2022-09-11T23:39:00.932Z,6.30
2022-09-11T23:41:29.321Z,6.60
2022-09-11T23:43:57.729Z,5.90
2022-09-11T23:46:25.837Z,6.30
2022-09-11T23:48:55.802Z,6.80
2022-09-11T23:51:23.745Z,6.97
2022-09-11T23:53:52.387Z,5.87
2022-09-11T23:56:22.412Z,6.43
2022-09-11T23:58:51.368Z,6.40
